Time;durP1;ratioP1;P1;durP2;ratioP2;P2;SDS_P1;SDS_P2;PMS_P1;PMS_P2;Temp;Humidity;BMP_temperature;BMP_pressure;BME280_temperature;BME280_humidity;BME280_pressure;Samples;Min_cycle;Max_cycle;Signal;HPM_P1;HPM_P2
2022/02/16 00:01:34;;;;;;;8.05;2.53;;;13.00;99.90;;;;;;4974517;28;20038;-51
2022/02/16 00:04:03;;;;;;;7.65;3.22;;;13.00;99.90;;;;;;4973481;28;20093;-49
2022/02/16 00:06:31;;;;;;;6.53;2.83;;;13.00;99.90;;;;;;4974125;28;20055;-52
2022/02/16 00:08:59;;;;;;;5.43;3.40;;;13.00;99.90;;;;;;4973304;28;20054;-51
2022/02/16 00:11:26;;;;;;;5.53;2.83;;;13.00;99.90;;;;;;4969756;28;20430;-52
2022/02/16 00:13:55;;;;;;;9.30;2.80;;;13.00;99.90;;;;;;4966832;28;20047;-52
2022/02/16 00:16:22;;;;;;;8.52;2.30;;;13.00;99.90;;;;;;4972574;28;20047;-49
2022/02/16 00:18:51;;;;;;;9.35;2.55;;;13.00;99.90;;;;;;4973592;28;20039;-54
2022/02/16 00:21:18;;;;;;;3.10;1.67;;;13.00;99.90;;;;;;4973717;28;20121;-53
2022/02/16 00:23:46;;;;;;;3.90;2.33;;;12.90;99.90;;;;;;4973462;28;20038;-50
2022/02/16 00:26:13;;;;;;;5.03;2.33;;;12.90;99.90;;;;;;4972876;28;20413;-50
2022/02/16 00:28:41;;;;;;;3.05;1.80;;;12.90;99.90;;;;;;4972971;28;20039;-50
2022/02/16 00:31:08;;;;;;;3.13;1.65;;;12.80;99.90;;;;;;4971626;28;20089;-55
2022/02/16 00:33:36;;;;;;;3.40;1.98;;;12.60;99.90;;;;;;4972175;28;20568;-49
2022/02/16 00:36:04;;;;;;;7.90;2.50;;;12.50;99.90;;;;;;4971696;28;20034;-50
2022/02/16 00:38:31;;;;;;;3.67;2.35;;;12.40;99.90;;;;;;4973637;28;20051;-51
2022/02/16 00:40:59;;;;;;;2.25;1.45;;;12.50;99.90;;;;;;4971519;28;20105;-52
2022/02/16 00:43:27;;;;;;;3.15;1.50;;;12.40;99.90;;;;;;4971085;28;20053;-55
2022/02/16 00:45:54;;;;;;;5.47;2.60;;;12.40;99.90;;;;;;4971690;28;20130;-50
2022/02/16 00:48:22;;;;;;;6.88;3.40;;;12.20;99.90;;;;;;4973107;28;20049;-53
2022/02/16 00:50:49;;;;;;;5.10;2.63;;;12.20;99.90;;;;;;4972067;28;20054;-51
2022/02/16 00:53:18;;;;;;;5.85;1.85;;;12.30;99.90;;;;;;4971262;28;20509;-53
2022/02/16 00:55:47;;;;;;;3.67;1.08;;;12.30;99.90;;;;;;4971456;28;20039;-52
2022/02/16 00:58:16;;;;;;;4.32;1.52;;;12.30;99.90;;;;;;4961905;28;20391;-51
2022/02/16 01:00:45;;;;;;;2.70;0.93;;;12.30;99.90;;;;;;4971275;28;20055;-50
2022/02/16 01:03:13;;;;;;;1.27;0.90;;;12.40;99.90;;;;;;4971066;28;20046;-50
2022/02/16 01:05:42;;;;;;;5.07;1.85;;;12.40;99.90;;;;;;4954040;28;20066;-52
2022/02/16 01:08:10;;;;;;;5.43;1.60;;;12.40;99.90;;;;;;4953083;28;20047;-51
2022/02/16 01:10:39;;;;;;;2.15;1.30;;;12.50;99.90;;;;;;4967892;28;20042;-51
2022/02/16 01:13:08;;;;;;;2.10;1.15;;;12.50;99.90;;;;;;4972189;28;20050;-49
2022/02/16 01:15:37;;;;;;;2.17;1.10;;;12.60;99.90;;;;;;4970448;28;20031;-50
2022/02/16 01:18:05;;;;;;;4.70;1.83;;;12.50;99.90;;;;;;4987568;28;20133;-53
2022/02/16 01:20:45;;;;;;;2.10;1.27;;;12.50;99.90;;;;;;4967574;28;20520;-51
2022/02/16 01:23:13;;;;;;;4.28;1.73;;;12.50;99.90;;;;;;4971360;28;20050;-55
2022/02/16 01:25:44;;;;;;;1.85;1.20;;;12.50;99.90;;;;;;4971992;28;20035;-54
2022/02/16 01:28:31;;;;;;;8.45;1.40;;;12.50;99.90;;;;;;4960892;28;20070;-51
2022/02/16 01:31:00;;;;;;;4.68;1.20;;;12.60;99.90;;;;;;4968078;28;20077;-52
2022/02/16 01:33:30;;;;;;;5.40;2.97;;;12.50;99.90;;;;;;4970304;28;20047;-50
2022/02/16 01:36:00;;;;;;;5.50;2.35;;;12.40;99.90;;;;;;4957292;28;20067;-51
2022/02/16 01:38:28;;;;;;;4.72;1.63;;;12.40;99.90;;;;;;4983391;28;20047;-52
2022/02/16 01:41:11;;;;;;;5.68;1.90;;;12.40;99.90;;;;;;4970895;28;20066;-52
2022/02/16 01:43:47;;;;;;;3.65;1.85;;;12.40;99.90;;;;;;4970584;28;20121;-51
2022/02/16 01:46:16;;;;;;;5.82;1.95;;;12.50;99.90;;;;;;4971330;28;20445;-50
2022/02/16 01:48:47;;;;;;;3.13;1.52;;;12.40;99.90;;;;;;4970607;28;20047;-54
2022/02/16 01:51:15;;;;;;;1.73;1.20;;;12.30;99.90;;;;;;4968155;28;20042;-52
2022/02/16 01:53:44;;;;;;;2.80;1.45;;;12.30;99.90;;;;;;4964148;28;20039;-53
2022/02/16 01:56:13;;;;;;;2.22;1.27;;;12.40;99.90;;;;;;4966753;28;20079;-50
2022/02/16 01:58:43;;;;;;;2.42;1.30;;;12.30;99.90;;;;;;4952131;28;20042;-52
2022/02/16 02:01:14;;;;;;;3.92;2.20;;;12.30;99.90;;;;;;4972353;28;20042;-51
2022/02/16 02:03:53;;;;;;;2.03;1.52;;;12.00;99.90;;;;;;4969840;28;20042;-52
2022/02/16 02:06:24;;;;;;;2.42;1.20;;;11.80;99.90;;;;;;4970737;28;20098;-51
2022/02/16 02:08:52;;;;;;;1.63;1.02;;;11.80;99.90;;;;;;4967907;28;20510;-53
2022/02/16 02:11:19;;;;;;;2.55;1.10;;;11.80;99.90;;;;;;4972168;28;20081;-50
2022/02/16 02:13:58;;;;;;;5.93;1.45;;;11.90;99.90;;;;;;4990449;28;20159;-53
2022/02/16 02:16:40;;;;;;;3.20;1.10;;;12.00;99.90;;;;;;4975426;28;20042;-51
2022/02/16 02:19:09;;;;;;;3.45;2.13;;;12.10;99.90;;;;;;4972301;28;20097;-49
2022/02/16 02:21:38;;;;;;;6.95;3.78;;;12.10;99.90;;;;;;4975499;28;20046;-51
2022/02/16 02:24:06;;;;;;;12.88;7.00;;;12.20;99.90;;;;;;4976686;28;20489;-52
2022/02/16 02:26:33;;;;;;;9.00;4.97;;;12.20;99.90;;;;;;4976521;28;20061;-50
2022/02/16 02:29:01;;;;;;;4.32;2.85;;;12.20;99.90;;;;;;4976739;28;20093;-53
2022/02/16 02:31:38;;;;;;;3.33;1.38;;;12.20;99.90;;;;;;4976701;28;20433;-51
2022/02/16 02:34:06;;;;;;;3.47;1.60;;;12.10;99.90;;;;;;4976194;28;20098;-51
2022/02/16 02:36:34;;;;;;;2.75;1.58;;;12.10;99.90;;;;;;4975805;28;20050;-54
2022/02/16 02:39:02;;;;;;;3.60;2.10;;;12.10;99.90;;;;;;4976087;28;20047;-52
2022/02/16 02:41:30;;;;;;;3.80;2.10;;;12.20;99.90;;;;;;4976443;28;20085;-53
2022/02/16 02:43:59;;;;;;;3.83;1.98;;;12.20;99.90;;;;;;4977135;28;20576;-52
2022/02/16 02:46:27;;;;;;;4.80;2.38;;;12.20;99.90;;;;;;4974800;28;20039;-53
2022/02/16 02:48:58;;;;;;;3.83;2.70;;;12.20;99.90;;;;;;4975133;28;20133;-50
2022/02/16 02:51:28;;;;;;;2.65;2.05;;;12.30;99.90;;;;;;4975642;28;20050;-49
2022/02/16 02:53:57;;;;;;;5.47;3.03;;;12.20;99.90;;;;;;4943952;28;20074;-51
2022/02/16 02:56:30;;;;;;;2.78;1.63;;;12.20;99.90;;;;;;4960799;28;20074;-50
2022/02/16 02:58:58;;;;;;;2.40;1.83;;;12.30;99.90;;;;;;4975964;28;20051;-49
2022/02/16 03:01:26;;;;;;;2.80;1.85;;;12.20;99.90;;;;;;4975934;28;20046;-50
2022/02/16 03:03:55;;;;;;;2.95;1.60;;;12.20;99.90;;;;;;4976106;28;20363;-52
2022/02/16 03:06:24;;;;;;;3.67;1.60;;;12.20;99.90;;;;;;4974772;28;20175;-52
2022/02/16 03:08:52;;;;;;;2.55;2.22;;;12.20;99.90;;;;;;4959555;28;20498;-50
2022/02/16 03:11:20;;;;;;;3.15;1.60;;;12.20;99.90;;;;;;4975711;28;20081;-49
2022/02/16 03:13:51;;;;;;;2.88;1.90;;;12.30;99.90;;;;;;4975592;28;20042;-52
2022/02/16 03:16:25;;;;;;;2.65;1.20;;;12.30;99.90;;;;;;4975748;28;20050;-51
2022/02/16 03:18:53;;;;;;;2.40;1.23;;;12.30;99.90;;;;;;4975902;28;20125;-50
2022/02/16 03:21:21;;;;;;;2.25;1.23;;;12.30;99.90;;;;;;4959097;28;20441;-53
2022/02/16 03:23:49;;;;;;;2.78;1.23;;;12.30;99.90;;;;;;4974622;28;20047;-51
2022/02/16 03:26:17;;;;;;;3.00;1.30;;;12.30;99.90;;;;;;4974674;28;20039;-50
2022/02/16 03:28:44;;;;;;;1.92;1.00;;;12.30;99.90;;;;;;4975320;28;20097;-52
2022/02/16 03:31:17;;;;;;;2.28;0.85;;;12.30;99.90;;;;;;4975602;28;20393;-53
2022/02/16 03:33:47;;;;;;;1.75;1.13;;;12.30;99.90;;;;;;4975768;28;20042;-51
2022/02/16 03:36:15;;;;;;;1.73;1.05;;;12.30;99.90;;;;;;4975187;28;20043;-49
2022/02/16 03:38:45;;;;;;;2.50;1.75;;;12.20;99.90;;;;;;4974370;28;20051;-50
2022/02/16 03:41:18;;;;;;;3.03;1.70;;;12.30;99.90;;;;;;4958917;28;20082;-51
2022/02/16 03:43:46;;;;;;;3.97;2.10;;;12.30;99.90;;;;;;4975240;28;20034;-49
2022/02/16 03:46:16;;;;;;;3.38;1.40;;;12.30;99.90;;;;;;4975379;28;20098;-50
2022/02/16 03:48:46;;;;;;;2.50;1.30;;;12.20;99.90;;;;;;4975418;28;20476;-53
2022/02/16 03:51:15;;;;;;;2.63;1.15;;;12.30;99.90;;;;;;4991662;28;20058;-51
2022/02/16 03:53:45;;;;;;;1.88;1.42;;;12.20;99.90;;;;;;4973976;28;20063;-52
2022/02/16 03:56:13;;;;;;;2.03;1.10;;;12.20;99.90;;;;;;4974570;28;20041;-53
2022/02/16 03:58:42;;;;;;;1.67;1.10;;;12.20;99.90;;;;;;4974658;28;20047;-50
2022/02/16 04:01:12;;;;;;;1.92;1.15;;;12.20;99.90;;;;;;4974812;28;20047;-53
2022/02/16 04:03:40;;;;;;;1.08;0.82;;;12.20;99.90;;;;;;4974845;28;20038;-50
2022/02/16 04:06:08;;;;;;;2.47;1.98;;;12.20;99.90;;;;;;4974844;28;20138;-53
2022/02/16 04:08:37;;;;;;;4.35;3.25;;;12.20;99.90;;;;;;4974079;28;20047;-50
2022/02/16 04:11:05;;;;;;;5.00;3.55;;;12.20;99.90;;;;;;4974127;28;20039;-51
2022/02/16 04:13:35;;;;;;;4.72;3.58;;;12.20;99.90;;;;;;4974578;28;20050;-52
2022/02/16 04:16:03;;;;;;;4.20;2.38;;;12.20;99.90;;;;;;4974641;28;20050;-52
2022/02/16 04:18:31;;;;;;;3.53;1.80;;;12.10;99.90;;;;;;4974641;28;20070;-51
2022/02/16 04:21:00;;;;;;;4.38;1.52;;;12.20;99.90;;;;;;4974489;28;20053;-51
2022/02/16 04:23:43;;;;;;;3.35;1.50;;;12.00;99.90;;;;;;4974431;28;20142;-50
2022/02/16 04:26:12;;;;;;;2.78;1.70;;;11.90;99.90;;;;;;4975270;28;20047;-52
2022/02/16 04:28:46;;;;;;;5.53;2.67;;;11.90;99.90;;;;;;4974169;28;20122;-50
2022/02/16 04:31:14;;;;;;;3.53;1.92;;;11.90;99.90;;;;;;4958183;28;20054;-51
2022/02/16 04:33:42;;;;;;;4.50;2.78;;;12.00;99.90;;;;;;4974436;28;20494;-50
2022/02/16 04:36:09;;;;;;;3.22;1.48;;;12.00;99.90;;;;;;4974005;28;20121;-49
2022/02/16 04:38:37;;;;;;;2.40;1.33;;;11.90;99.90;;;;;;4974144;28;20043;-52
2022/02/16 04:41:05;;;;;;;4.95;2.30;;;11.90;99.90;;;;;;4973521;28;20158;-53
2022/02/16 04:43:32;;;;;;;2.38;1.42;;;11.80;99.90;;;;;;4973729;28;20038;-52
2022/02/16 04:46:01;;;;;;;3.45;1.55;;;11.70;99.90;;;;;;4973926;28;20047;-50
2022/02/16 04:48:32;;;;;;;2.60;1.10;;;11.80;99.90;;;;;;4975214;28;20567;-50
2022/02/16 04:51:00;;;;;;;3.28;1.40;;;11.70;99.90;;;;;;4974180;28;20074;-53
2022/02/16 04:53:35;;;;;;;2.90;1.45;;;11.80;99.90;;;;;;4974166;28;20039;-52
2022/02/16 04:56:06;;;;;;;4.53;1.90;;;11.70;99.90;;;;;;4973059;28;20398;-50
2022/02/16 04:58:36;;;;;;;3.10;1.10;;;11.70;99.90;;;;;;4973304;28;20612;-49
2022/02/16 05:01:04;;;;;;;1.80;1.20;;;11.70;99.90;;;;;;4973819;28;20125;-51
2022/02/16 05:03:34;;;;;;;2.90;1.10;;;11.70;99.90;;;;;;4974240;28;20078;-50
2022/02/16 05:06:02;;;;;;;2.22;1.20;;;11.80;99.90;;;;;;4973575;28;20565;-49
2022/02/16 05:08:31;;;;;;;1.70;1.20;;;11.70;99.90;;;;;;4973664;28;20141;-50
2022/02/16 05:10:59;;;;;;;2.63;1.38;;;11.70;99.90;;;;;;4972978;28;20133;-49
2022/02/16 05:13:52;;;;;;;2.10;1.35;;;11.80;99.90;;;;;;4973250;28;20541;-53
2022/02/16 05:16:21;;;;;;;3.65;1.80;;;11.80;99.90;;;;;;4957844;28;20502;-51
2022/02/16 05:18:49;;;;;;;2.85;1.52;;;11.80;99.90;;;;;;4973533;28;20070;-51
2022/02/16 05:21:18;;;;;;;3.25;1.33;;;11.80;99.90;;;;;;4973582;28;20549;-53
2022/02/16 05:23:45;;;;;;;1.65;1.10;;;11.80;99.90;;;;;;4974708;28;20132;-50
2022/02/16 05:26:15;;;;;;;2.55;1.50;;;11.90;99.90;;;;;;4957552;28;20122;-53
2022/02/16 05:28:43;;;;;;;3.42;1.80;;;11.80;99.90;;;;;;4972722;28;20505;-50
2022/02/16 05:31:11;;;;;;;3.78;1.55;;;11.90;99.90;;;;;;4973303;28;20047;-53
2022/02/16 05:33:39;;;;;;;2.90;1.77;;;11.90;99.90;;;;;;4973398;28;20046;-52
2022/02/16 05:36:12;;;;;;;2.20;1.58;;;11.80;99.90;;;;;;4973475;28;20043;-52
2022/02/16 05:38:45;;;;;;;3.15;1.60;;;11.80;99.90;;;;;;4973252;28;20485;-49
2022/02/16 05:41:13;;;;;;;3.05;2.28;;;11.80;99.90;;;;;;4973539;28;20556;-50
2022/02/16 05:43:40;;;;;;;4.65;1.75;;;11.80;99.90;;;;;;4972190;28;20049;-51
2022/02/16 05:46:11;;;;;;;5.88;1.92;;;11.80;99.90;;;;;;4972879;28;20039;-51
2022/02/16 05:48:39;;;;;;;2.30;1.38;;;11.90;99.90;;;;;;4975274;28;20070;-52
2022/02/16 05:51:07;;;;;;;2.78;1.88;;;11.90;99.90;;;;;;4977219;28;20398;-49
2022/02/16 05:53:34;;;;;;;5.53;1.63;;;11.80;99.90;;;;;;4977198;28;20037;-51
2022/02/16 05:56:05;;;;;;;2.58;1.50;;;11.90;99.90;;;;;;4977497;28;20498;-51
2022/02/16 05:58:33;;;;;;;4.03;2.25;;;11.80;99.90;;;;;;4976215;28;20042;-51
2022/02/16 06:01:01;;;;;;;3.65;1.73;;;11.80;99.90;;;;;;4977857;28;20053;-50
2022/02/16 06:03:43;;;;;;;3.83;2.72;;;11.90;99.90;;;;;;4976894;28;20051;-51
2022/02/16 06:06:12;;;;;;;6.75;2.30;;;11.80;99.90;;;;;;4977079;28;20051;-49
2022/02/16 06:08:40;;;;;;;3.08;2.10;;;11.90;99.90;;;;;;4977020;28;20054;-52
2022/02/16 06:11:10;;;;;;;3.05;1.92;;;11.90;99.90;;;;;;4976908;28;20119;-53
2022/02/16 06:13:39;;;;;;;4.97;2.70;;;11.80;99.90;;;;;;4976225;28;20047;-51
2022/02/16 06:16:13;;;;;;;5.05;1.88;;;11.80;99.90;;;;;;4976082;28;20439;-50
2022/02/16 06:18:41;;;;;;;3.60;1.98;;;11.80;99.90;;;;;;4976568;28;20039;-49
2022/02/16 06:21:10;;;;;;;2.50;1.92;;;11.80;99.90;;;;;;4977123;28;20081;-50
2022/02/16 06:23:40;;;;;;;3.85;1.80;;;11.80;99.90;;;;;;4961516;28;20098;-53
2022/02/16 06:26:08;;;;;;;3.85;1.73;;;11.80;99.90;;;;;;4978187;28;20031;-55
2022/02/16 06:28:38;;;;;;;3.47;1.80;;;11.70;99.90;;;;;;4976902;28;20042;-51
2022/02/16 06:31:07;;;;;;;5.57;2.10;;;11.80;99.90;;;;;;4976873;28;20046;-55
2022/02/16 06:33:36;;;;;;;3.95;1.75;;;11.70;99.90;;;;;;4976780;28;20054;-50
2022/02/16 06:36:04;;;;;;;2.75;1.40;;;11.70;99.90;;;;;;4977071;28;20081;-52
2022/02/16 06:38:32;;;;;;;1.83;1.42;;;11.60;99.90;;;;;;4976745;28;20054;-52
2022/02/16 06:41:04;;;;;;;6.40;2.15;;;11.60;99.90;;;;;;4976788;28;20054;-54
2022/02/16 06:43:35;;;;;;;4.00;2.20;;;11.30;99.90;;;;;;4976556;28;20078;-54
2022/02/16 06:46:02;;;;;;;6.70;2.30;;;11.30;99.90;;;;;;4977833;28;20047;-52
2022/02/16 06:48:30;;;;;;;7.47;2.00;;;11.30;99.90;;;;;;4976491;28;20070;-54
2022/02/16 06:50:57;;;;;;;4.57;2.33;;;11.40;99.90;;;;;;4977577;28;20038;-53
2022/02/16 06:53:25;;;;;;;5.85;2.30;;;11.40;99.90;;;;;;4976466;28;20047;-50
2022/02/16 06:55:53;;;;;;;3.88;2.25;;;11.50;99.90;;;;;;4977621;28;20039;-52
2022/02/16 06:58:41;;;;;;;3.42;2.10;;;11.50;99.90;;;;;;4977338;28;20042;-51
2022/02/16 07:01:10;;;;;;;5.97;3.35;;;11.50;99.90;;;;;;4977656;28;20042;-52
2022/02/16 07:03:38;;;;;;;3.67;2.10;;;11.60;99.90;;;;;;4976280;28;20039;-50
2022/02/16 07:06:16;;;;;;;2.97;2.00;;;11.60;99.90;;;;;;4976041;28;20054;-50
2022/02/16 07:08:45;;;;;;;3.53;2.03;;;11.60;99.90;;;;;;4976133;28;20054;-52
2022/02/16 07:11:13;;;;;;;3.53;1.88;;;11.60;99.90;;;;;;4976379;28;20133;-50
2022/02/16 07:13:40;;;;;;;4.13;2.40;;;11.70;99.90;;;;;;4976244;28;20062;-54
2022/02/16 07:16:08;;;;;;;4.20;2.20;;;11.70;99.90;;;;;;4977162;28;20057;-52
2022/02/16 07:18:39;;;;;;;2.60;1.77;;;11.70;99.90;;;;;;4976225;28;20137;-50
2022/02/16 07:21:33;;;;;;;5.10;1.85;;;11.70;99.90;;;;;;4977493;28;20054;-51
2022/02/16 07:24:02;;;;;;;4.25;2.25;;;11.70;99.90;;;;;;4975969;28;20042;-55
2022/02/16 07:26:31;;;;;;;3.88;1.77;;;11.70;99.90;;;;;;4976300;28;20047;-55
2022/02/16 07:28:59;;;;;;;5.72;3.00;;;11.80;99.90;;;;;;4976074;28;20401;-52
2022/02/16 07:31:29;;;;;;;4.55;3.05;;;11.80;99.90;;;;;;4975810;28;20042;-50
2022/02/16 07:33:57;;;;;;;4.05;2.72;;;11.80;99.90;;;;;;4975678;28;20053;-53
2022/02/16 07:36:25;;;;;;;4.80;2.70;;;11.80;99.90;;;;;;4975874;28;20126;-52
2022/02/16 07:38:55;;;;;;;4.03;2.30;;;11.80;99.90;;;;;;4975893;28;20397;-49
2022/02/16 07:41:22;;;;;;;4.03;2.17;;;11.80;99.90;;;;;;4976758;28;20134;-51
2022/02/16 07:44:04;;;;;;;2.78;1.80;;;11.80;99.90;;;;;;4947747;28;20093;-52
2022/02/16 07:46:48;;;;;;;4.80;2.38;;;11.80;99.90;;;;;;4975732;28;20047;-49
2022/02/16 07:49:16;;;;;;;4.85;3.92;;;11.80;99.90;;;;;;4975725;28;20050;-51
2022/02/16 07:52:04;;;;;;;5.97;4.70;;;11.80;99.90;;;;;;4976162;28;20055;-54
2022/02/16 07:55:00;;;;;;;4.55;3.05;;;11.80;99.90;;;;;;4975986;28;20086;-51
2022/02/16 07:57:39;;;;;;;5.03;2.75;;;11.70;99.90;;;;;;4975236;28;20459;-50
2022/02/16 08:00:07;;;;;;;3.38;2.85;;;11.70;99.90;;;;;;4976558;28;20086;-53
2022/02/16 08:03:01;;;;;;;3.90;2.80;;;11.70;99.90;;;;;;4975312;28;20043;-49
2022/02/16 08:05:29;;;;;;;4.80;3.40;;;11.70;99.90;;;;;;4974885;28;20047;-53
2022/02/16 08:07:58;;;;;;;7.00;3.60;;;11.70;99.90;;;;;;4975406;28;20046;-49
2022/02/16 08:10:27;;;;;;;8.52;4.38;;;11.70;99.90;;;;;;4975765;28;20047;-50
2022/02/16 08:12:59;;;;;;;11.50;7.45;;;11.70;99.90;;;;;;4976396;28;20078;-53
2022/02/16 08:15:40;;;;;;;11.88;8.60;;;11.60;99.90;;;;;;4975008;28;20051;-52
2022/02/16 08:18:09;;;;;;;10.60;7.00;;;11.70;99.90;;;;;;4975978;28;20493;-50
2022/02/16 08:20:37;;;;;;;8.15;5.30;;;11.60;99.90;;;;;;4974942;28;20125;-50
2022/02/16 08:23:24;;;;;;;7.13;3.70;;;11.60;99.90;;;;;;4974928;28;20125;-49
2022/02/16 08:25:56;;;;;;;6.63;3.83;;;11.70;99.90;;;;;;4974791;28;20117;-50
2022/02/16 08:28:25;;;;;;;6.05;2.88;;;11.60;99.90;;;;;;4973135;28;20043;-56
2022/02/16 08:30:53;;;;;;;5.72;3.40;;;11.70;99.90;;;;;;4973248;28;20068;-51
2022/02/16 08:33:41;;;;;;;6.75;4.10;;;11.70;99.90;;;;;;4970379;28;20045;-50
2022/02/16 08:36:11;;;;;;;5.85;3.22;;;11.60;99.90;;;;;;4972600;28;20055;-51
2022/02/16 08:38:40;;;;;;;4.18;2.60;;;11.70;99.90;;;;;;4973343;28;20102;-53
2022/02/16 08:41:09;;;;;;;5.22;3.40;;;11.60;99.90;;;;;;4973744;28;20051;-51
2022/02/16 08:43:37;;;;;;;4.82;3.00;;;11.60;99.90;;;;;;4972920;28;20046;-52
2022/02/16 08:46:04;;;;;;;5.53;2.95;;;11.60;99.90;;;;;;4972998;28;20081;-54
2022/02/16 08:48:32;;;;;;;2.97;2.42;;;11.60;99.90;;;;;;4973120;28;20039;-53
2022/02/16 08:51:00;;;;;;;5.28;2.90;;;11.60;99.90;;;;;;4974002;28;20505;-51
2022/02/16 08:53:27;;;;;;;6.43;2.30;;;11.50;99.90;;;;;;4970741;28;20046;-50
2022/02/16 08:55:56;;;;;;;4.50;2.33;;;11.50;99.90;;;;;;4972899;28;20485;-53
2022/02/16 08:58:24;;;;;;;9.15;3.80;;;11.50;99.90;;;;;;4959460;28;20043;-55
2022/02/16 09:00:52;;;;;;;5.30;3.10;;;11.50;99.90;;;;;;4973725;28;20051;-52
2022/02/16 09:03:19;;;;;;;3.00;2.00;;;11.50;99.90;;;;;;4972189;28;20383;-50
2022/02/16 09:05:48;;;;;;;4.78;2.20;;;11.40;99.90;;;;;;4971504;28;20133;-54
2022/02/16 09:08:15;;;;;;;4.60;2.50;;;11.30;99.90;;;;;;4973069;28;20039;-53
2022/02/16 09:10:45;;;;;;;7.72;2.40;;;11.30;99.90;;;;;;4961938;28;20136;-53
2022/02/16 09:13:12;;;;;;;4.45;2.67;;;11.30;99.90;;;;;;4972060;28;20057;-51
2022/02/16 09:15:40;;;;;;;4.32;2.45;;;11.30;99.90;;;;;;4971586;28;20413;-54
2022/02/16 09:18:08;;;;;;;3.17;1.77;;;11.30;99.90;;;;;;4972784;28;20042;-54
2022/02/16 09:20:35;;;;;;;3.45;2.38;;;11.30;99.90;;;;;;4973376;28;20035;-53
2022/02/16 09:23:06;;;;;;;2.80;1.90;;;11.40;99.90;;;;;;4971505;28;20046;-52
2022/02/16 09:25:33;;;;;;;4.28;2.45;;;11.40;99.90;;;;;;4984099;28;20379;-52
2022/02/16 09:28:01;;;;;;;3.53;2.30;;;11.40;99.90;;;;;;4970488;28;20049;-54
2022/02/16 09:30:30;;;;;;;6.43;3.22;;;11.50;99.90;;;;;;4973640;28;20566;-54
2022/02/16 09:32:58;;;;;;;7.97;2.80;;;11.50;99.90;;;;;;4972315;28;20097;-55
2022/02/16 09:35:26;;;;;;;6.55;2.90;;;11.60;99.90;;;;;;4971574;28;20555;-53
2022/02/16 09:37:54;;;;;;;3.53;2.25;;;11.60;99.90;;;;;;4972738;28;20043;-53
2022/02/16 09:40:21;;;;;;;3.95;1.88;;;11.60;99.90;;;;;;4961440;28;20039;-54
2022/02/16 09:42:49;;;;;;;5.13;3.10;;;11.60;99.90;;;;;;4971767;28;20106;-54
2022/02/16 09:45:17;;;;;;;3.55;2.30;;;11.70;99.90;;;;;;4972320;28;20038;-52
2022/02/16 09:47:45;;;;;;;4.90;2.88;;;11.60;99.90;;;;;;4972261;28;20055;-53
2022/02/16 09:50:16;;;;;;;5.35;3.65;;;11.60;99.90;;;;;;4972156;28;20050;-53
2022/02/16 09:52:44;;;;;;;4.97;2.58;;;11.60;99.90;;;;;;4971783;28;20050;-54
2022/02/16 09:55:12;;;;;;;3.60;1.98;;;11.60;99.90;;;;;;4971650;28;20031;-55
2022/02/16 09:57:40;;;;;;;5.18;2.72;;;11.60;99.90;;;;;;4970942;28;20039;-55
2022/02/16 10:00:11;;;;;;;3.25;1.88;;;11.60;99.90;;;;;;4972050;28;20043;-55
2022/02/16 10:02:40;;;;;;;4.22;2.28;;;11.60;99.90;;;;;;4971684;28;20054;-54
2022/02/16 10:05:09;;;;;;;5.97;3.30;;;11.60;99.90;;;;;;4971968;28;20035;-55
2022/02/16 10:07:45;;;;;;;3.85;2.83;;;11.50;99.90;;;;;;4972026;28;20043;-50
2022/02/16 10:10:20;;;;;;;7.70;4.28;;;11.50;99.90;;;;;;4971451;28;20057;-55
2022/02/16 10:12:50;;;;;;;7.63;4.63;;;11.60;99.90;;;;;;4973435;28;20042;-55
2022/02/16 10:15:47;;;;;;;7.05;4.13;;;11.60;99.90;;;;;;4973465;28;20042;-54
2022/02/16 10:18:18;;;;;;;4.75;2.80;;;11.60;99.90;;;;;;4973472;28;20051;-54
2022/02/16 10:20:46;;;;;;;5.80;3.15;;;11.60;99.90;;;;;;4972235;28;20450;-55
2022/02/16 10:23:17;;;;;;;5.82;3.58;;;11.70;99.90;;;;;;4973580;28;20050;-54
2022/02/16 10:25:50;;;;;;;4.15;2.00;;;11.70;99.90;;;;;;4973324;28;20449;-55
2022/02/16 10:28:20;;;;;;;2.78;1.88;;;11.80;99.90;;;;;;4972852;28;20553;-55
2022/02/16 10:31:02;;;;;;;5.95;2.60;;;11.80;99.90;;;;;;4973601;28;20446;-56
2022/02/16 10:33:40;;;;;;;3.67;2.22;;;11.80;99.90;;;;;;4973677;28;20106;-53
2022/02/16 10:36:14;;;;;;;4.15;2.47;;;11.80;99.90;;;;;;4976746;28;20042;-52
2022/02/16 10:38:53;;;;;;;5.57;2.92;;;11.80;99.90;;;;;;4976752;28;20552;-53
2022/02/16 10:41:24;;;;;;;6.80;3.58;;;11.90;99.90;;;;;;4976873;28;20097;-55
2022/02/16 10:43:52;;;;;;;8.35;3.78;;;11.90;99.90;;;;;;4976747;28;20497;-54
2022/02/16 10:46:27;;;;;;;5.72;2.97;;;11.90;99.90;;;;;;4975359;28;20149;-54
2022/02/16 10:49:09;;;;;;;5.50;2.47;;;11.90;99.90;;;;;;4976634;28;20379;-55
2022/02/16 10:51:50;;;;;;;6.68;3.78;;;11.90;99.90;;;;;;4976441;28;20043;-53
2022/02/16 10:54:19;;;;;;;8.55;5.70;;;11.90;99.90;;;;;;4976663;28;20101;-55
2022/02/16 10:56:49;;;;;;;9.07;5.78;;;11.90;99.90;;;;;;4976379;28;20425;-54
2022/02/16 10:59:17;;;;;;;8.23;4.25;;;11.90;99.90;;;;;;4968871;28;20126;-56
2022/02/16 11:01:46;;;;;;;10.70;5.10;;;12.00;99.90;;;;;;4974112;28;20043;-53
2022/02/16 11:04:15;;;;;;;4.15;2.80;;;12.00;99.90;;;;;;4962363;28;20529;-53
2022/02/16 11:06:47;;;;;;;6.10;3.53;;;12.10;99.90;;;;;;4929398;28;1307280;-64
2022/02/16 11:09:22;;;;;;;16.27;4.28;;;12.40;99.90;;;;;;4975363;28;20074;-57
2022/02/16 11:11:52;;;;;;;13.57;5.07;;;12.60;99.90;;;;;;4965748;28;20046;-60
2022/02/16 11:14:28;;;;;;;11.18;3.83;;;12.80;99.90;;;;;;4974878;28;20046;-59
2022/02/16 11:16:56;;;;;;;9.00;3.93;;;12.90;99.90;;;;;;4974803;28;20119;-59
2022/02/16 11:19:32;;;;;;;6.75;4.25;;;13.00;99.90;;;;;;4974880;28;20478;-59
2022/02/16 11:22:01;;;;;;;4.93;3.10;;;13.00;99.90;;;;;;4973225;28;20432;-59
2022/02/16 11:24:37;;;;;;;11.05;5.00;;;13.00;99.90;;;;;;4974263;28;20046;-59
2022/02/16 11:27:29;;;;;;;;;;;13.00;99.90;;;;;;4965247;28;20125;-59
2022/02/16 11:29:59;;;;;;;8.60;5.22;;;12.90;99.90;;;;;;4974111;28;19922;-59
2022/02/16 11:32:31;;;;;;;10.77;5.72;;;12.90;99.90;;;;;;4975233;28;20051;-59
2022/02/16 11:35:29;;;;;;;8.77;4.80;;;12.80;99.90;;;;;;4974986;28;20115;-59
2022/02/16 11:38:02;;;;;;;7.80;5.45;;;12.70;99.90;;;;;;4971152;28;20047;-60
2022/02/16 11:40:37;;;;;;;9.68;6.03;;;12.70;99.90;;;;;;4973896;28;20442;-59
2022/02/16 11:43:05;;;;;;;8.35;4.32;;;12.60;99.90;;;;;;4973031;28;20506;-59
2022/02/16 11:45:55;;;;;;;6.20;4.18;;;12.60;99.90;;;;;;4973644;28;20042;-59
2022/02/16 11:48:40;;;;;;;11.20;4.10;;;12.50;99.90;;;;;;4974841;28;20453;-59
2022/02/16 11:51:37;;;;;;;14.35;5.47;;;12.50;99.90;;;;;;4973962;28;20088;-59
2022/02/16 11:54:41;;;;;;;9.75;5.70;;;12.40;99.90;;;;;;4955174;28;20051;-59
2022/02/16 11:57:30;;;;;;;15.32;5.40;;;12.40;99.90;;;;;;4966715;28;20074;-59
2022/02/16 11:59:59;;;;;;;9.63;6.07;;;12.40;99.90;;;;;;4975613;28;20524;-59
2022/02/16 12:02:27;;;;;;;7.95;5.00;;;12.40;99.90;;;;;;4976052;28;20055;-59
2022/02/16 12:04:57;;;;;;;6.10;3.47;;;12.40;99.90;;;;;;4976604;28;20129;-59
2022/02/16 12:07:26;;;;;;;7.28;3.90;;;12.40;99.90;;;;;;4975084;28;20050;-59
2022/02/16 12:10:13;;;;;;;8.07;4.85;;;12.40;99.90;;;;;;4975260;28;20081;-59
2022/02/16 12:12:42;;;;;;;5.60;4.10;;;12.40;99.90;;;;;;4976047;28;20056;-59
2022/02/16 12:15:19;;;;;;;7.25;3.78;;;12.40;99.90;;;;;;4975984;28;20046;-59
2022/02/16 12:17:52;;;;;;;8.77;4.93;;;12.60;99.90;;;;;;4991112;28;20050;-59
2022/02/16 12:20:24;;;;;;;14.88;5.65;;;12.60;99.90;;;;;;4974551;28;20058;-59
2022/02/16 12:22:52;;;;;;;11.32;5.07;;;12.60;99.90;;;;;;4975679;28;20043;-59
2022/02/16 12:25:20;;;;;;;17.33;6.03;;;12.60;99.90;;;;;;4975672;28;20047;-59
2022/02/16 12:27:47;;;;;;;7.65;4.68;;;12.60;99.90;;;;;;4975902;28;20086;-59
2022/02/16 12:30:15;;;;;;;7.97;4.20;;;12.60;99.90;;;;;;4975876;28;20117;-59
2022/02/16 12:32:46;;;;;;;14.88;6.32;;;12.50;99.90;;;;;;4975821;28;20046;-59
2022/02/16 12:35:14;;;;;;;15.30;8.65;;;12.50;99.90;;;;;;4975832;28;20047;-59
2022/02/16 12:37:43;;;;;;;20.95;8.85;;;12.50;99.90;;;;;;4975538;28;20196;-59
2022/02/16 12:40:11;;;;;;;10.15;6.20;;;12.50;99.90;;;;;;4975648;28;20051;-59
2022/02/16 12:42:45;;;;;;;9.68;5.70;;;12.50;99.90;;;;;;4975624;28;20434;-59
2022/02/16 12:45:20;;;;;;;11.40;5.43;;;12.40;99.90;;;;;;4975962;28;20097;-59
2022/02/16 12:47:50;;;;;;;9.75;5.97;;;12.40;99.90;;;;;;4975968;28;20050;-59
2022/02/16 12:50:17;;;;;;;9.73;5.28;;;12.40;99.90;;;;;;4975466;28;20049;-59
2022/02/16 12:52:45;;;;;;;11.65;6.47;;;12.40;99.90;;;;;;4974483;28;20047;-59
2022/02/16 12:55:13;;;;;;;9.93;6.10;;;12.30;99.90;;;;;;4975635;28;20571;-59
2022/02/16 12:57:43;;;;;;;9.20;4.30;;;12.30;99.90;;;;;;4975114;28;20406;-59
2022/02/16 13:03:03;;;;;;;27.05;6.28;;;12.30;99.90;;;;;;4975328;28;20393;-59
2022/02/16 13:05:44;;;;;;;14.88;8.30;;;12.30;99.90;;;;;;4975309;28;20437;-59
2022/02/16 13:08:14;;;;;;;18.83;7.90;;;12.30;99.90;;;;;;4975434;28;20137;-59